sensor_id;sensor_type;location;lat;lon;timestamp;P1;durP1;ratioP1;P2;durP2;ratioP2
70967;SDS011;58629;48.808;8.820;2023-02-17T00:01:41;5.30;;;2.80;;
70967;SDS011;58629;48.808;8.820;2023-02-17T00:04:07;6.57;;;3.00;;
70967;SDS011;58629;48.808;8.820;2023-02-17T00:06:32;4.80;;;2.93;;
70967;SDS011;58629;48.808;8.820;2023-02-17T00:08:57;5.00;;;2.77;;
70967;SDS011;58629;48.808;8.820;2023-02-17T00:11:24;4.43;;;2.60;;
70967;SDS011;58629;48.808;8.820;2023-02-17T00:13:49;4.93;;;2.85;;
70967;SDS011;58629;48.808;8.820;2023-02-17T00:16:17;4.60;;;2.77;;
70967;SDS011;58629;48.808;8.820;2023-02-17T00:18:44;4.70;;;2.75;;
70967;SDS011;58629;48.808;8.820;2023-02-17T00:21:17;5.65;;;3.10;;
70967;SDS011;58629;48.808;8.820;2023-02-17T00:23:44;5.43;;;2.80;;
70967;SDS011;58629;48.808;8.820;2023-02-17T00:26:10;6.60;;;2.70;;
70967;SDS011;58629;48.808;8.820;2023-02-17T00:28:36;6.70;;;3.03;;
70967;SDS011;58629;48.808;8.820;2023-02-17T00:31:05;5.57;;;3.40;;
70967;SDS011;58629;48.808;8.820;2023-02-17T00:33:32;5.90;;;3.60;;
70967;SDS011;58629;48.808;8.820;2023-02-17T00:35:57;5.53;;;3.27;;
70967;SDS011;58629;48.808;8.820;2023-02-17T00:38:22;6.17;;;3.20;;
70967;SDS011;58629;48.808;8.820;2023-02-17T00:40:47;5.13;;;3.10;;
70967;SDS011;58629;48.808;8.820;2023-02-17T00:43:13;4.77;;;2.80;;
70967;SDS011;58629;48.808;8.820;2023-02-17T00:45:38;4.40;;;2.50;;
70967;SDS011;58629;48.808;8.820;2023-02-17T00:48:03;4.43;;;2.53;;
70967;SDS011;58629;48.808;8.820;2023-02-17T00:50:28;4.43;;;2.30;;
70967;SDS011;58629;48.808;8.820;2023-02-17T00:52:54;5.10;;;2.60;;
70967;SDS011;58629;48.808;8.820;2023-02-17T00:55:19;4.30;;;2.40;;
70967;SDS011;58629;48.808;8.820;2023-02-17T00:57:44;4.17;;;2.40;;
70967;SDS011;58629;48.808;8.820;2023-02-17T01:00:09;4.33;;;2.50;;
70967;SDS011;58629;48.808;8.820;2023-02-17T01:02:35;5.43;;;2.70;;
70967;SDS011;58629;48.808;8.820;2023-02-17T01:05:00;4.27;;;2.40;;
70967;SDS011;58629;48.808;8.820;2023-02-17T01:07:26;4.43;;;2.53;;
70967;SDS011;58629;48.808;8.820;2023-02-17T01:09:51;4.03;;;2.50;;
70967;SDS011;58629;48.808;8.820;2023-02-17T01:12:16;5.83;;;2.80;;
70967;SDS011;58629;48.808;8.820;2023-02-17T01:14:41;5.83;;;2.93;;
70967;SDS011;58629;48.808;8.820;2023-02-17T01:17:07;4.93;;;3.20;;
70967;SDS011;58629;48.808;8.820;2023-02-17T01:19:32;4.70;;;2.80;;
70967;SDS011;58629;48.808;8.820;2023-02-17T01:21:57;7.77;;;3.63;;
70967;SDS011;58629;48.808;8.820;2023-02-17T01:24:23;6.43;;;3.60;;
70967;SDS011;58629;48.808;8.820;2023-02-17T01:26:48;6.30;;;3.40;;
70967;SDS011;58629;48.808;8.820;2023-02-17T01:29:13;5.37;;;3.03;;
70967;SDS011;58629;48.808;8.820;2023-02-17T01:31:39;5.45;;;3.00;;
70967;SDS011;58629;48.808;8.820;2023-02-17T01:34:04;6.63;;;3.40;;
70967;SDS011;58629;48.808;8.820;2023-02-17T01:36:30;5.53;;;3.20;;
70967;SDS011;58629;48.808;8.820;2023-02-17T01:38:55;4.75;;;2.85;;
70967;SDS011;58629;48.808;8.820;2023-02-17T01:41:21;4.90;;;2.90;;
70967;SDS011;58629;48.808;8.820;2023-02-17T01:44:07;5.72;;;3.03;;
70967;SDS011;58629;48.808;8.820;2023-02-17T01:46:52;5.60;;;3.23;;
70967;SDS011;58629;48.808;8.820;2023-02-17T01:49:20;6.15;;;3.13;;
70967;SDS011;58629;48.808;8.820;2023-02-17T01:51:54;5.32;;;2.83;;
70967;SDS011;58629;48.808;8.820;2023-02-17T01:54:29;4.47;;;2.45;;
70967;SDS011;58629;48.808;8.820;2023-02-17T01:56:59;4.60;;;2.72;;
70967;SDS011;58629;48.808;8.820;2023-02-17T01:59:26;4.97;;;2.50;;
70967;SDS011;58629;48.808;8.820;2023-02-17T02:01:54;4.72;;;2.88;;
70967;SDS011;58629;48.808;8.820;2023-02-17T02:04:23;4.13;;;2.70;;
70967;SDS011;58629;48.808;8.820;2023-02-17T02:06:52;4.32;;;2.50;;
70967;SDS011;58629;48.808;8.820;2023-02-17T02:09:19;4.50;;;2.60;;
70967;SDS011;58629;48.808;8.820;2023-02-17T02:11:50;4.50;;;2.40;;
70967;SDS011;58629;48.808;8.820;2023-02-17T02:14:16;4.70;;;2.22;;
70967;SDS011;58629;48.808;8.820;2023-02-17T02:19:33;5.10;;;2.57;;
70967;SDS011;58629;48.808;8.820;2023-02-17T02:25:05;4.95;;;2.60;;
70967;SDS011;58629;48.808;8.820;2023-02-17T02:36:10;5.60;;;3.00;;
70967;SDS011;58629;48.808;8.820;2023-02-17T02:38:51;5.80;;;3.05;;
70967;SDS011;58629;48.808;8.820;2023-02-17T02:41:22;5.32;;;2.97;;
70967;SDS011;58629;48.808;8.820;2023-02-17T02:43:53;4.95;;;2.72;;
70967;SDS011;58629;48.808;8.820;2023-02-17T02:46:18;5.37;;;3.13;;
70967;SDS011;58629;48.808;8.820;2023-02-17T02:48:44;5.87;;;2.87;;
70967;SDS011;58629;48.808;8.820;2023-02-17T02:53:44;6.23;;;3.27;;
70967;SDS011;58629;48.808;8.820;2023-02-17T02:56:27;4.68;;;2.80;;
70967;SDS011;58629;48.808;8.820;2023-02-17T03:02:12;5.55;;;2.85;;
70967;SDS011;58629;48.808;8.820;2023-02-17T03:05:03;6.05;;;2.83;;
70967;SDS011;58629;48.808;8.820;2023-02-17T03:07:39;5.30;;;3.10;;
70967;SDS011;58629;48.808;8.820;2023-02-17T03:10:12;5.40;;;2.83;;
70967;SDS011;58629;48.808;8.820;2023-02-17T03:12:38;5.45;;;2.90;;
70967;SDS011;58629;48.808;8.820;2023-02-17T03:15:13;4.88;;;2.80;;
70967;SDS011;58629;48.808;8.820;2023-02-17T03:17:42;4.07;;;2.42;;
70967;SDS011;58629;48.808;8.820;2023-02-17T03:20:08;5.30;;;2.70;;
70967;SDS011;58629;48.808;8.820;2023-02-17T03:22:35;7.47;;;2.80;;
70967;SDS011;58629;48.808;8.820;2023-02-17T03:25:04;5.40;;;2.70;;
70967;SDS011;58629;48.808;8.820;2023-02-17T03:27:30;4.43;;;2.50;;
70967;SDS011;58629;48.808;8.820;2023-02-17T03:29:55;5.20;;;2.67;;
70967;SDS011;58629;48.808;8.820;2023-02-17T03:32:20;4.07;;;2.47;;
70967;SDS011;58629;48.808;8.820;2023-02-17T03:34:46;4.07;;;2.50;;
70967;SDS011;58629;48.808;8.820;2023-02-17T03:37:11;4.50;;;2.30;;
70967;SDS011;58629;48.808;8.820;2023-02-17T03:39:36;4.57;;;2.60;;
70967;SDS011;58629;48.808;8.820;2023-02-17T03:42:02;4.20;;;2.40;;
70967;SDS011;58629;48.808;8.820;2023-02-17T03:44:27;5.30;;;2.90;;
70967;SDS011;58629;48.808;8.820;2023-02-17T03:46:52;4.43;;;2.47;;
70967;SDS011;58629;48.808;8.820;2023-02-17T03:49:18;4.27;;;2.40;;
70967;SDS011;58629;48.808;8.820;2023-02-17T03:51:43;5.72;;;2.53;;
70967;SDS011;58629;48.808;8.820;2023-02-17T03:54:08;4.57;;;2.25;;
70967;SDS011;58629;48.808;8.820;2023-02-17T03:56:34;5.20;;;2.30;;
70967;SDS011;58629;48.808;8.820;2023-02-17T03:58:59;3.60;;;2.20;;
70967;SDS011;58629;48.808;8.820;2023-02-17T04:01:24;3.70;;;2.10;;
70967;SDS011;58629;48.808;8.820;2023-02-17T04:03:49;3.70;;;1.90;;
70967;SDS011;58629;48.808;8.820;2023-02-17T04:06:15;3.77;;;1.87;;
70967;SDS011;58629;48.808;8.820;2023-02-17T04:08:41;3.85;;;2.10;;
70967;SDS011;58629;48.808;8.820;2023-02-17T04:11:07;5.27;;;2.20;;
70967;SDS011;58629;48.808;8.820;2023-02-17T04:13:33;4.32;;;1.92;;
70967;SDS011;58629;48.808;8.820;2023-02-17T04:15:59;5.13;;;1.90;;
70967;SDS011;58629;48.808;8.820;2023-02-17T04:18:28;3.25;;;1.88;;
70967;SDS011;58629;48.808;8.820;2023-02-17T04:20:54;3.85;;;2.08;;
70967;SDS011;58629;48.808;8.820;2023-02-17T04:23:19;3.90;;;1.90;;
70967;SDS011;58629;48.808;8.820;2023-02-17T04:25:45;2.90;;;1.52;;
70967;SDS011;58629;48.808;8.820;2023-02-17T04:28:11;2.17;;;1.40;;
70967;SDS011;58629;48.808;8.820;2023-02-17T04:30:38;2.10;;;1.35;;
70967;SDS011;58629;48.808;8.820;2023-02-17T04:33:03;3.88;;;1.63;;
70967;SDS011;58629;48.808;8.820;2023-02-17T04:35:29;3.80;;;1.57;;
70967;SDS011;58629;48.808;8.820;2023-02-17T04:37:54;2.47;;;1.60;;
70967;SDS011;58629;48.808;8.820;2023-02-17T04:40:20;2.80;;;1.47;;
70967;SDS011;58629;48.808;8.820;2023-02-17T04:42:45;2.53;;;1.33;;
70967;SDS011;58629;48.808;8.820;2023-02-17T04:45:11;2.87;;;1.63;;
70967;SDS011;58629;48.808;8.820;2023-02-17T04:47:37;4.18;;;1.60;;
70967;SDS011;58629;48.808;8.820;2023-02-17T04:50:03;1.90;;;1.13;;
70967;SDS011;58629;48.808;8.820;2023-02-17T04:52:29;2.75;;;1.33;;
70967;SDS011;58629;48.808;8.820;2023-02-17T04:54:54;2.83;;;1.43;;
70967;SDS011;58629;48.808;8.820;2023-02-17T04:57:20;2.57;;;1.63;;
70967;SDS011;58629;48.808;8.820;2023-02-17T04:59:45;2.97;;;1.40;;
70967;SDS011;58629;48.808;8.820;2023-02-17T05:02:10;2.50;;;1.40;;
70967;SDS011;58629;48.808;8.820;2023-02-17T05:04:36;2.80;;;1.40;;
70967;SDS011;58629;48.808;8.820;2023-02-17T05:07:01;3.10;;;1.60;;
70967;SDS011;58629;48.808;8.820;2023-02-17T05:09:26;3.67;;;1.90;;
70967;SDS011;58629;48.808;8.820;2023-02-17T05:11:52;3.53;;;1.80;;
70967;SDS011;58629;48.808;8.820;2023-02-17T05:14:17;3.90;;;1.83;;
70967;SDS011;58629;48.808;8.820;2023-02-17T05:16:42;3.67;;;1.80;;
70967;SDS011;58629;48.808;8.820;2023-02-17T05:19:08;5.87;;;2.67;;
70967;SDS011;58629;48.808;8.820;2023-02-17T05:21:33;4.37;;;2.33;;
70967;SDS011;58629;48.808;8.820;2023-02-17T05:23:58;3.60;;;2.10;;
70967;SDS011;58629;48.808;8.820;2023-02-17T05:26:24;3.17;;;2.00;;
70967;SDS011;58629;48.808;8.820;2023-02-17T05:28:49;4.13;;;2.10;;
70967;SDS011;58629;48.808;8.820;2023-02-17T05:31:15;4.07;;;2.43;;
70967;SDS011;58629;48.808;8.820;2023-02-17T05:33:40;3.90;;;1.90;;
70967;SDS011;58629;48.808;8.820;2023-02-17T05:36:06;4.37;;;2.27;;
70967;SDS011;58629;48.808;8.820;2023-02-17T05:38:33;3.33;;;2.10;;
70967;SDS011;58629;48.808;8.820;2023-02-17T05:40:58;3.37;;;2.07;;
70967;SDS011;58629;48.808;8.820;2023-02-17T05:43:23;3.70;;;2.10;;
70967;SDS011;58629;48.808;8.820;2023-02-17T05:45:49;4.93;;;3.30;;
70967;SDS011;58629;48.808;8.820;2023-02-17T05:48:14;4.07;;;2.40;;
70967;SDS011;58629;48.808;8.820;2023-02-17T05:50:40;3.53;;;2.10;;
70967;SDS011;58629;48.808;8.820;2023-02-17T05:53:05;4.57;;;2.50;;
70967;SDS011;58629;48.808;8.820;2023-02-17T05:55:31;3.47;;;2.23;;
70967;SDS011;58629;48.808;8.820;2023-02-17T05:57:56;4.43;;;2.10;;
70967;SDS011;58629;48.808;8.820;2023-02-17T06:00:21;7.03;;;4.50;;
70967;SDS011;58629;48.808;8.820;2023-02-17T06:02:47;3.97;;;2.60;;
70967;SDS011;58629;48.808;8.820;2023-02-17T06:05:12;4.77;;;2.20;;
70967;SDS011;58629;48.808;8.820;2023-02-17T06:07:38;3.73;;;2.13;;
70967;SDS011;58629;48.808;8.820;2023-02-17T06:10:03;5.60;;;2.10;;
70967;SDS011;58629;48.808;8.820;2023-02-17T06:12:29;4.28;;;2.17;;
70967;SDS011;58629;48.808;8.820;2023-02-17T06:14:54;3.90;;;2.27;;
70967;SDS011;58629;48.808;8.820;2023-02-17T06:17:19;3.50;;;1.80;;
70967;SDS011;58629;48.808;8.820;2023-02-17T06:19:45;3.97;;;1.60;;
70967;SDS011;58629;48.808;8.820;2023-02-17T06:22:10;3.65;;;1.52;;
70967;SDS011;58629;48.808;8.820;2023-02-17T06:24:35;3.23;;;1.60;;
70967;SDS011;58629;48.808;8.820;2023-02-17T06:27:01;3.50;;;1.70;;
70967;SDS011;58629;48.808;8.820;2023-02-17T06:29:26;2.97;;;1.60;;
70967;SDS011;58629;48.808;8.820;2023-02-17T06:31:52;2.97;;;1.60;;
70967;SDS011;58629;48.808;8.820;2023-02-17T06:34:17;3.05;;;1.60;;
70967;SDS011;58629;48.808;8.820;2023-02-17T06:36:43;4.60;;;1.63;;
70967;SDS011;58629;48.808;8.820;2023-02-17T06:39:08;3.90;;;1.70;;
70967;SDS011;58629;48.808;8.820;2023-02-17T06:41:33;2.77;;;2.13;;
70967;SDS011;58629;48.808;8.820;2023-02-17T06:43:58;3.60;;;1.70;;
70967;SDS011;58629;48.808;8.820;2023-02-17T06:46:24;2.87;;;1.77;;
70967;SDS011;58629;48.808;8.820;2023-02-17T06:48:49;2.03;;;1.40;;
70967;SDS011;58629;48.808;8.820;2023-02-17T06:51:14;4.03;;;1.43;;
70967;SDS011;58629;48.808;8.820;2023-02-17T06:53:40;2.30;;;1.40;;
70967;SDS011;58629;48.808;8.820;2023-02-17T06:56:05;4.30;;;1.60;;
70967;SDS011;58629;48.808;8.820;2023-02-17T06:58:30;2.63;;;1.42;;
70967;SDS011;58629;48.808;8.820;2023-02-17T07:00:56;1.90;;;1.30;;
70967;SDS011;58629;48.808;8.820;2023-02-17T07:03:22;4.32;;;3.88;;
70967;SDS011;58629;48.808;8.820;2023-02-17T07:05:47;3.20;;;2.33;;
70967;SDS011;58629;48.808;8.820;2023-02-17T07:08:12;2.17;;;1.80;;
70967;SDS011;58629;48.808;8.820;2023-02-17T07:10:38;4.60;;;3.40;;
70967;SDS011;58629;48.808;8.820;2023-02-17T07:13:03;3.90;;;2.10;;
70967;SDS011;58629;48.808;8.820;2023-02-17T07:15:28;2.37;;;1.43;;
70967;SDS011;58629;48.808;8.820;2023-02-17T07:17:54;2.73;;;1.30;;
70967;SDS011;58629;48.808;8.820;2023-02-17T07:20:19;2.37;;;1.30;;
70967;SDS011;58629;48.808;8.820;2023-02-17T07:22:44;3.22;;;1.80;;
70967;SDS011;58629;48.808;8.820;2023-02-17T07:25:10;2.97;;;1.70;;
70967;SDS011;58629;48.808;8.820;2023-02-17T07:27:35;1.93;;;1.10;;
70967;SDS011;58629;48.808;8.820;2023-02-17T07:30:01;3.08;;;1.20;;
70967;SDS011;58629;48.808;8.820;2023-02-17T07:32:27;1.70;;;1.10;;
70967;SDS011;58629;48.808;8.820;2023-02-17T07:34:53;2.27;;;1.33;;
70967;SDS011;58629;48.808;8.820;2023-02-17T07:37:18;1.60;;;1.17;;
70967;SDS011;58629;48.808;8.820;2023-02-17T07:39:45;1.90;;;1.13;;
70967;SDS011;58629;48.808;8.820;2023-02-17T07:42:11;3.95;;;2.15;;
70967;SDS011;58629;48.808;8.820;2023-02-17T07:44:37;2.23;;;1.30;;
70967;SDS011;58629;48.808;8.820;2023-02-17T07:47:02;1.20;;;0.87;;
70967;SDS011;58629;48.808;8.820;2023-02-17T07:49:27;1.33;;;0.80;;
70967;SDS011;58629;48.808;8.820;2023-02-17T07:51:53;1.43;;;0.70;;
70967;SDS011;58629;48.808;8.820;2023-02-17T07:54:18;1.47;;;0.90;;
70967;SDS011;58629;48.808;8.820;2023-02-17T07:56:43;4.38;;;1.75;;
70967;SDS011;58629;48.808;8.820;2023-02-17T07:59:12;1.33;;;0.77;;
70967;SDS011;58629;48.808;8.820;2023-02-17T08:01:38;1.48;;;0.60;;
70967;SDS011;58629;48.808;8.820;2023-02-17T08:04:04;1.00;;;0.60;;
70967;SDS011;58629;48.808;8.820;2023-02-17T08:06:29;1.30;;;0.63;;
70967;SDS011;58629;48.808;8.820;2023-02-17T08:08:55;1.57;;;0.70;;
70967;SDS011;58629;48.808;8.820;2023-02-17T08:11:40;2.03;;;0.70;;
70967;SDS011;58629;48.808;8.820;2023-02-17T08:14:24;0.80;;;0.60;;
70967;SDS011;58629;48.808;8.820;2023-02-17T08:16:51;1.20;;;0.70;;
70967;SDS011;58629;48.808;8.820;2023-02-17T08:19:17;1.60;;;0.80;;
70967;SDS011;58629;48.808;8.820;2023-02-17T08:21:43;1.60;;;0.60;;
70967;SDS011;58629;48.808;8.820;2023-02-17T08:24:08;1.20;;;0.73;;
70967;SDS011;58629;48.808;8.820;2023-02-17T08:26:34;0.93;;;0.52;;
70967;SDS011;58629;48.808;8.820;2023-02-17T08:28:59;0.97;;;0.60;;
70967;SDS011;58629;48.808;8.820;2023-02-17T08:31:26;0.80;;;0.57;;
70967;SDS011;58629;48.808;8.820;2023-02-17T08:33:54;1.27;;;0.60;;
70967;SDS011;58629;48.808;8.820;2023-02-17T08:36:20;1.30;;;0.70;;
70967;SDS011;58629;48.808;8.820;2023-02-17T08:38:48;2.47;;;1.60;;
70967;SDS011;58629;48.808;8.820;2023-02-17T08:41:16;2.00;;;1.10;;
70967;SDS011;58629;48.808;8.820;2023-02-17T08:43:47;1.35;;;0.82;;
70967;SDS011;58629;48.808;8.820;2023-02-17T08:46:13;1.15;;;0.60;;
70967;SDS011;58629;48.808;8.820;2023-02-17T08:48:38;1.57;;;0.60;;
70967;SDS011;58629;48.808;8.820;2023-02-17T08:51:04;0.60;;;0.50;;
70967;SDS011;58629;48.808;8.820;2023-02-17T08:53:30;1.17;;;0.80;;
70967;SDS011;58629;48.808;8.820;2023-02-17T08:55:56;0.70;;;0.50;;
70967;SDS011;58629;48.808;8.820;2023-02-17T08:58:21;1.47;;;0.80;;
70967;SDS011;58629;48.808;8.820;2023-02-17T09:00:47;0.75;;;0.52;;
70967;SDS011;58629;48.808;8.820;2023-02-17T09:03:13;1.70;;;0.53;;
70967;SDS011;58629;48.808;8.820;2023-02-17T09:05:39;1.27;;;0.70;;
70967;SDS011;58629;48.808;8.820;2023-02-17T09:08:04;1.87;;;1.00;;
70967;SDS011;58629;48.808;8.820;2023-02-17T09:10:29;1.20;;;0.60;;
70967;SDS011;58629;48.808;8.820;2023-02-17T09:12:55;3.03;;;1.50;;
70967;SDS011;58629;48.808;8.820;2023-02-17T09:15:20;2.33;;;0.93;;
70967;SDS011;58629;48.808;8.820;2023-02-17T09:17:45;0.93;;;0.50;;
70967;SDS011;58629;48.808;8.820;2023-02-17T09:20:10;1.70;;;0.90;;
70967;SDS011;58629;48.808;8.820;2023-02-17T09:22:36;1.25;;;0.60;;
70967;SDS011;58629;48.808;8.820;2023-02-17T09:25:02;1.03;;;0.40;;
70967;SDS011;58629;48.808;8.820;2023-02-17T09:27:28;0.93;;;0.50;;
70967;SDS011;58629;48.808;8.820;2023-02-17T09:29:54;0.90;;;0.37;;
70967;SDS011;58629;48.808;8.820;2023-02-17T09:32:19;0.70;;;0.50;;
70967;SDS011;58629;48.808;8.820;2023-02-17T09:34:45;0.77;;;0.60;;
70967;SDS011;58629;48.808;8.820;2023-02-17T09:37:19;1.10;;;0.38;;
70967;SDS011;58629;48.808;8.820;2023-02-17T09:39:46;1.10;;;0.50;;
70967;SDS011;58629;48.808;8.820;2023-02-17T09:42:17;1.00;;;0.40;;
70967;SDS011;58629;48.808;8.820;2023-02-17T09:44:55;0.70;;;0.40;;
70967;SDS011;58629;48.808;8.820;2023-02-17T09:47:31;0.80;;;0.40;;
70967;SDS011;58629;48.808;8.820;2023-02-17T09:50:07;0.70;;;0.40;;
70967;SDS011;58629;48.808;8.820;2023-02-17T09:52:58;0.30;;;0.20;;
70967;SDS011;58629;48.808;8.820;2023-02-17T09:55:29;0.50;;;0.20;;
70967;SDS011;58629;48.808;8.820;2023-02-17T09:57:58;0.93;;;0.28;;
70967;SDS011;58629;48.808;8.820;2023-02-17T10:00:46;0.40;;;0.13;;
70967;SDS011;58629;48.808;8.820;2023-02-17T10:06:00;0.30;;;0.20;;
70967;SDS011;58629;48.808;8.820;2023-02-17T10:11:35;0.38;;;0.28;;
70967;SDS011;58629;48.808;8.820;2023-02-17T10:14:10;1.10;;;0.10;;
70967;SDS011;58629;48.808;8.820;2023-02-17T10:16:50;0.32;;;0.10;;
70967;SDS011;58629;48.808;8.820;2023-02-17T10:22:20;0.30;;;0.10;;
70967;SDS011;58629;48.808;8.820;2023-02-17T10:24:46;0.52;;;0.10;;
70967;SDS011;58629;48.808;8.820;2023-02-17T10:29:50;0.45;;;0.10;;
70967;SDS011;58629;48.808;8.820;2023-02-17T10:32:24;0.10;;;0.00;;
70967;SDS011;58629;48.808;8.820;2023-02-17T10:40:16;1.00;;;0.03;;
70967;SDS011;58629;48.808;8.820;2023-02-17T10:42:42;0.25;;;0.08;;
70967;SDS011;58629;48.808;8.820;2023-02-17T10:45:16;0.20;;;0.10;;
70967;SDS011;58629;48.808;8.820;2023-02-17T10:47:55;0.17;;;0.08;;
70967;SDS011;58629;48.808;8.820;2023-02-17T10:50:25;0.10;;;0.00;;
70967;SDS011;58629;48.808;8.820;2023-02-17T10:52:51;0.95;;;0.03;;
70967;SDS011;58629;48.808;8.820;2023-02-17T10:55:22;1.02;;;0.10;;
70967;SDS011;58629;48.808;8.820;2023-02-17T10:57:58;0.28;;;0.00;;
70967;SDS011;58629;48.808;8.820;2023-02-17T11:00:29;0.20;;;0.10;;
70967;SDS011;58629;48.808;8.820;2023-02-17T11:02:55;0.23;;;0.00;;
70967;SDS011;58629;48.808;8.820;2023-02-17T11:05:38;0.97;;;0.10;;
70967;SDS011;58629;48.808;8.820;2023-02-17T11:08:22;0.20;;;0.10;;
70967;SDS011;58629;48.808;8.820;2023-02-17T11:10:59;0.10;;;0.00;;
70967;SDS011;58629;48.808;8.820;2023-02-17T11:13:34;0.10;;;0.00;;
70967;SDS011;58629;48.808;8.820;2023-02-17T11:16:36;0.20;;;0.10;;
70967;SDS011;58629;48.808;8.820;2023-02-17T11:19:06;0.03;;;0.03;;
70967;SDS011;58629;48.808;8.820;2023-02-17T11:21:46;0.13;;;0.00;;
70967;SDS011;58629;48.808;8.820;2023-02-17T11:24:11;0.00;;;0.00;;
70967;SDS011;58629;48.808;8.820;2023-02-17T11:26:37;0.10;;;0.00;;
70967;SDS011;58629;48.808;8.820;2023-02-17T11:29:06;0.20;;;0.00;;
70967;SDS011;58629;48.808;8.820;2023-02-17T11:31:31;0.25;;;0.10;;
70967;SDS011;58629;48.808;8.820;2023-02-17T11:33:57;0.17;;;0.10;;
70967;SDS011;58629;48.808;8.820;2023-02-17T11:36:23;0.40;;;0.03;;
70967;SDS011;58629;48.808;8.820;2023-02-17T11:38:51;0.57;;;0.10;;
70967;SDS011;58629;48.808;8.820;2023-02-17T11:41:16;0.30;;;0.00;;
70967;SDS011;58629;48.808;8.820;2023-02-17T11:43:52;0.20;;;0.10;;
70967;SDS011;58629;48.808;8.820;2023-02-17T11:51:58;0.20;;;0.00;;
70967;SDS011;58629;48.808;8.820;2023-02-17T12:00:11;0.25;;;0.10;;
70967;SDS011;58629;48.808;8.820;2023-02-17T12:08:47;0.47;;;0.00;;
70967;SDS011;58629;48.808;8.820;2023-02-17T12:14:10;0.20;;;0.10;;
70967;SDS011;58629;48.808;8.820;2023-02-17T12:19:40;0.20;;;0.10;;
70967;SDS011;58629;48.808;8.820;2023-02-17T12:22:19;0.30;;;0.10;;
70967;SDS011;58629;48.808;8.820;2023-02-17T12:30:58;0.70;;;0.10;;
70967;SDS011;58629;48.808;8.820;2023-02-17T12:36:01;0.20;;;0.20;;
70967;SDS011;58629;48.808;8.820;2023-02-17T12:38:34;0.20;;;0.10;;
70967;SDS011;58629;48.808;8.820;2023-02-17T12:46:11;0.73;;;0.20;;
70967;SDS011;58629;48.808;8.820;2023-02-17T12:53:46;0.90;;;0.17;;
70967;SDS011;58629;48.808;8.820;2023-02-17T12:58:50;0.40;;;0.20;;
70967;SDS011;58629;48.808;8.820;2023-02-17T13:01:17;0.30;;;0.20;;
70967;SDS011;58629;48.808;8.820;2023-02-17T13:03:45;0.28;;;0.22;;
70967;SDS011;58629;48.808;8.820;2023-02-17T13:09:03;0.50;;;0.15;;
70967;SDS011;58629;48.808;8.820;2023-02-17T13:11:47;0.30;;;0.20;;
70967;SDS011;58629;48.808;8.820;2023-02-17T13:14:25;0.13;;;0.10;;
70967;SDS011;58629;48.808;8.820;2023-02-17T13:16:53;0.30;;;0.22;;
70967;SDS011;58629;48.808;8.820;2023-02-17T13:19:28;0.68;;;0.20;;
70967;SDS011;58629;48.808;8.820;2023-02-17T13:21:55;0.60;;;0.30;;
70967;SDS011;58629;48.808;8.820;2023-02-17T13:29:56;0.20;;;0.10;;
70967;SDS011;58629;48.808;8.820;2023-02-17T13:32:26;0.80;;;0.20;;
70967;SDS011;58629;48.808;8.820;2023-02-17T13:39:56;0.30;;;0.20;;
70967;SDS011;58629;48.808;8.820;2023-02-17T13:42:39;0.40;;;0.20;;
70967;SDS011;58629;48.808;8.820;2023-02-17T13:47:54;0.60;;;0.22;;
70967;SDS011;58629;48.808;8.820;2023-02-17T13:50:27;0.20;;;0.20;;
70967;SDS011;58629;48.808;8.820;2023-02-17T13:52:55;0.38;;;0.20;;
70967;SDS011;58629;48.808;8.820;2023-02-17T13:55:21;0.32;;;0.30;;
70967;SDS011;58629;48.808;8.820;2023-02-17T13:57:59;0.52;;;0.30;;
70967;SDS011;58629;48.808;8.820;2023-02-17T14:00:26;0.90;;;0.30;;
70967;SDS011;58629;48.808;8.820;2023-02-17T14:02:54;0.30;;;0.30;;
70967;SDS011;58629;48.808;8.820;2023-02-17T14:07:56;0.75;;;0.40;;
70967;SDS011;58629;48.808;8.820;2023-02-17T14:10:36;0.38;;;0.30;;
70967;SDS011;58629;48.808;8.820;2023-02-17T14:13:01;0.73;;;0.30;;
70967;SDS011;58629;48.808;8.820;2023-02-17T14:15:27;0.47;;;0.20;;
70967;SDS011;58629;48.808;8.820;2023-02-17T14:17:53;0.40;;;0.20;;
70967;SDS011;58629;48.808;8.820;2023-02-17T14:22:59;0.28;;;0.20;;
70967;SDS011;58629;48.808;8.820;2023-02-17T14:25:25;0.70;;;0.20;;
70967;SDS011;58629;48.808;8.820;2023-02-17T14:27:52;0.40;;;0.20;;
70967;SDS011;58629;48.808;8.820;2023-02-17T14:33:15;0.30;;;0.10;;
70967;SDS011;58629;48.808;8.820;2023-02-17T14:35:48;0.30;;;0.20;;
70967;SDS011;58629;48.808;8.820;2023-02-17T14:38:19;0.55;;;0.30;;
70967;SDS011;58629;48.808;8.820;2023-02-17T14:40:50;0.20;;;0.20;;
70967;SDS011;58629;48.808;8.820;2023-02-17T14:43:17;0.45;;;0.20;;
70967;SDS011;58629;48.808;8.820;2023-02-17T14:45:43;0.60;;;0.30;;
70967;SDS011;58629;48.808;8.820;2023-02-17T14:48:08;0.30;;;0.20;;
70967;SDS011;58629;48.808;8.820;2023-02-17T14:50:34;0.50;;;0.30;;
70967;SDS011;58629;48.808;8.820;2023-02-17T14:53:08;0.28;;;0.20;;
70967;SDS011;58629;48.808;8.820;2023-02-17T14:55:56;1.30;;;0.30;;
70967;SDS011;58629;48.808;8.820;2023-02-17T14:58:25;0.88;;;0.20;;
70967;SDS011;58629;48.808;8.820;2023-02-17T15:00:50;0.30;;;0.20;;
70967;SDS011;58629;48.808;8.820;2023-02-17T15:03:16;1.03;;;0.30;;
70967;SDS011;58629;48.808;8.820;2023-02-17T15:05:42;0.40;;;0.30;;
70967;SDS011;58629;48.808;8.820;2023-02-17T15:08:09;0.30;;;0.30;;
70967;SDS011;58629;48.808;8.820;2023-02-17T15:10:38;0.63;;;0.30;;
70967;SDS011;58629;48.808;8.820;2023-02-17T15:13:04;0.95;;;0.30;;
70967;SDS011;58629;48.808;8.820;2023-02-17T15:15:30;0.43;;;0.30;;
70967;SDS011;58629;48.808;8.820;2023-02-17T15:17:55;0.43;;;0.20;;
70967;SDS011;58629;48.808;8.820;2023-02-17T15:20:21;0.33;;;0.20;;
70967;SDS011;58629;48.808;8.820;2023-02-17T15:22:46;0.63;;;0.43;;
70967;SDS011;58629;48.808;8.820;2023-02-17T15:25:17;0.60;;;0.40;;
70967;SDS011;58629;48.808;8.820;2023-02-17T15:27:46;0.80;;;0.50;;
70967;SDS011;58629;48.808;8.820;2023-02-17T15:30:13;2.35;;;0.30;;
70967;SDS011;58629;48.808;8.820;2023-02-17T15:32:40;0.63;;;0.50;;
70967;SDS011;58629;48.808;8.820;2023-02-17T15:37:42;0.82;;;0.40;;
70967;SDS011;58629;48.808;8.820;2023-02-17T15:40:11;0.60;;;0.37;;
70967;SDS011;58629;48.808;8.820;2023-02-17T15:42:38;0.73;;;0.47;;
70967;SDS011;58629;48.808;8.820;2023-02-17T15:45:03;1.30;;;0.80;;
70967;SDS011;58629;48.808;8.820;2023-02-17T15:47:28;1.73;;;0.90;;
70967;SDS011;58629;48.808;8.820;2023-02-17T15:49:54;2.13;;;0.97;;
70967;SDS011;58629;48.808;8.820;2023-02-17T15:52:19;1.63;;;1.27;;
70967;SDS011;58629;48.808;8.820;2023-02-17T15:54:44;1.10;;;1.00;;
70967;SDS011;58629;48.808;8.820;2023-02-17T15:57:31;1.07;;;0.87;;
70967;SDS011;58629;48.808;8.820;2023-02-17T15:59:56;1.60;;;0.80;;
70967;SDS011;58629;48.808;8.820;2023-02-17T16:02:22;1.70;;;1.07;;
70967;SDS011;58629;48.808;8.820;2023-02-17T16:04:49;1.80;;;1.00;;
70967;SDS011;58629;48.808;8.820;2023-02-17T16:07:14;1.90;;;0.93;;
70967;SDS011;58629;48.808;8.820;2023-02-17T16:09:39;2.00;;;1.10;;
70967;SDS011;58629;48.808;8.820;2023-02-17T16:12:07;2.67;;;0.80;;
70967;SDS011;58629;48.808;8.820;2023-02-17T16:14:39;1.10;;;0.90;;
70967;SDS011;58629;48.808;8.820;2023-02-17T16:17:08;1.52;;;0.80;;
70967;SDS011;58629;48.808;8.820;2023-02-17T16:19:37;2.63;;;1.00;;
70967;SDS011;58629;48.808;8.820;2023-02-17T16:22:03;1.03;;;0.90;;
70967;SDS011;58629;48.808;8.820;2023-02-17T16:24:28;2.43;;;1.60;;
70967;SDS011;58629;48.808;8.820;2023-02-17T16:26:53;1.20;;;0.90;;
70967;SDS011;58629;48.808;8.820;2023-02-17T16:29:20;1.58;;;0.80;;
70967;SDS011;58629;48.808;8.820;2023-02-17T16:31:46;1.42;;;0.70;;
70967;SDS011;58629;48.808;8.820;2023-02-17T16:34:15;1.60;;;0.75;;
70967;SDS011;58629;48.808;8.820;2023-02-17T16:36:42;1.23;;;0.70;;
70967;SDS011;58629;48.808;8.820;2023-02-17T16:39:12;1.33;;;0.70;;
70967;SDS011;58629;48.808;8.820;2023-02-17T16:41:40;0.65;;;0.60;;